Main page
METAR-TAF:

METAR-TAF

Airports :

Trang Airport

Trang, Thailand

latitude: 07-31N, longitude: 099-37E, elevation: 14 m

Current weather observation

The report was made 23 minutes ago, at 03:00 UTC
Wind 10 kt from the East/Northeast
Temperature 31°C
Humidity 52%
Pressure 1013 hPa
Visibility 10 km or more
Few clouds at a height of 2000 ft

METAR: VTST 250300Z 07010KT 9999 FEW020 31/20 Q1013 NOSIG

Time: 10:23 (03:23 UTC)

Forecast

The report was made 4 hours and 23 minutes ago, at 23:00 UTC
Forecast valid from 25 at 00 UTC to 25 at 24 UTC
Wind kt from the North
Visibility 10 km or more
Few clouds at a height of 2000 ft
Becoming
from 25 at 02 UTC to 25 at 04 UTC
Wind 8 kt from the East/Northeast

TAF: VTST 242300Z 2500/2524 00000KT 9999 FEW020 BECMG 2502/2504 06008KT

Weather observations and forecasts of more than 4000 airports (METAR and TAF reports).

The available stations are represented by yellow and red dots on the map.

Hover mouse over dot to see the name of the station.

Then click to see weather observations and forecasts.

To change the map : click on the green buttons with a black cross to zoom in, on the green button with a dash to zoom out, or on the green arrows for adjacent maps.


METAR-TAF: